Surface weather observations from New York State from the past hour:

KSWF 230245Z 14005KT 10SM SKC 19/15 A3003=

Return to: Albany Weather Page

Return to: Department of Atmospheric and Environmental Sciences Homepage


Comments to daesweb@albany.edu